EGLLENFB

Guest
Details From EGLL - London Heathrow
To ENFB - [x] Oslo Fornebu
Flight Number -
Tags Generated
Created
Modified
Stats Distance 629 nm / 1,164 km
Max Altitude 0 ft / 0 m
Waypoints 4
Social Downloads 1
Likes 0
Share VATSIM

Download

Looking for another format? Having issues loading an existing format? Contact us
Advertisement - Login to hide

Notes

Generated

Route

EGLL BELAP QEAST ENFB

ID Type Via Altitude Latitude Longitude Leg Dist Tot Dist Heading (true) Name
O EGLL APT - 0 ft / 0 m 51.46477˚ -0.48695˚ - 0 nm - -
BELAP FIX - 0 ft / 0 m 55.48508˚ 3.99614˚ 289 nm 289 nm 32° / 35° -
QEAST FIX - 0 ft / 0 m 59.71090˚ 10.23655˚ 323 nm 613 nm 36° / 41° -
O ENFB APT - 0 ft / 0 m 59.88837˚ 10.61675˚ 15 nm 628 nm 47° / 47° -

Altitude Profile

Advertisement - Login to hide

Weather


0- 5 10 15 20 25 30 35+ Temperature / ° C

Clouds and Precipitation
Forecast for 2018-05-23 06:00 UTC. Updated 17 minutes ago

Ground ~20,000 ft ~40,000 ft Winds

EGLL

Details ICAO EGLL (LHR)
Name London Heathrow
Region United Kingdom
Timezone Europe/London (UTC+1.0)
Stats Elevation 83 ft / 25 m (AMSL)
Location 51.471218° -0.460978°
Runways 2
Magnetic Variation 0.496° W

METAR

EGLL 230320Z AUTO 03006KT 330V070 9999 OVC012 11/08 Q1022 NOSIG

Decode

TAF

TAF EGLL 222257Z 2300/2406 03008KT 9999 BKN012 TEMPO 2300/2308 7000 BKN008 BECMG 2306/2309 FEW045 PROB30 TEMPO 2312/2319 6000 SHRA TEMPO 2319/2406 7000 SHRA

Decode

Departure Runways

ID Width Length Bearing (true) Bearing (mag) Surface Threshold Offset Overrun Length
09L 164 ft / 50 m 12,811 ft / 3,905 m 89.64° 90.14° Asphalt 1,004 ft / 306 m 0 ft / 0 m
09R 164 ft / 50 m 12,019 ft / 3,663 m 89.67° 90.17° Asphalt 1,007 ft / 307 m 0 ft / 0 m
27L 164 ft / 50 m 12,019 ft / 3,663 m 269.71° 270.21° Asphalt 0 ft / 0 m 69 ft / 21 m
27R 164 ft / 50 m 12,811 ft / 3,905 m 269.69° 270.19° Asphalt 0 ft / 0 m 69 ft / 21 m

ENFB

Details ICAO ENFB (FBU)
Name [X] Oslo Fornebu
Region Norway
Timezone Europe/Oslo (UTC+2.0)
Stats Elevation 52 ft / 16 m (AMSL)
Location 59.896160° 10.615832°
Runways 2
Magnetic Variation 3.243° E

METAR

ENFB 230320Z AUTO 02026KT //// NCD 08/05 Q1025 W///S5

Decode

TAF

Not found

Destination Runways

ID Width Length Bearing (true) Bearing (mag) Surface Threshold Offset Overrun Length
01 150 ft / 46 m 6,076 ft / 1,852 m 5.47° 2.23° Asphalt 0 ft / 0 m 0 ft / 0 m
06 150 ft / 46 m 8,008 ft / 2,441 m 57.98° 54.74° Asphalt 0 ft / 0 m 0 ft / 0 m
19 150 ft / 46 m 6,076 ft / 1,852 m 185.47° 182.23° Asphalt 0 ft / 0 m 0 ft / 0 m
24 150 ft / 46 m 8,008 ft / 2,441 m 238.02° 234.78° Asphalt 0 ft / 0 m 0 ft / 0 m

Popular Alternatives